createdAt,value
2023-01-28T00:00:37.298Z,4.67
2023-01-28T00:03:03.898Z,4.65
2023-01-28T00:05:30.459Z,4.63
2023-01-28T00:07:58.087Z,4.61
2023-01-28T00:10:24.752Z,4.60
2023-01-28T00:12:51.328Z,4.63
2023-01-28T00:15:18.085Z,4.66
2023-01-28T00:17:44.679Z,4.67
2023-01-28T00:20:11.611Z,4.72
2023-01-28T00:22:38.238Z,4.72
2023-01-28T00:25:05.274Z,4.71
2023-01-28T00:27:31.858Z,4.70
2023-01-28T00:29:58.523Z,4.69
2023-01-28T00:32:25.163Z,4.66
2023-01-28T00:34:51.747Z,4.67
2023-01-28T00:37:18.358Z,4.68
2023-01-28T00:39:44.914Z,4.69
2023-01-28T00:42:11.458Z,4.71
2023-01-28T00:44:38.080Z,4.70
2023-01-28T00:47:04.735Z,4.68
2023-01-28T00:49:31.340Z,4.69
2023-01-28T00:51:57.917Z,4.68
2023-01-28T00:54:24.534Z,4.66
2023-01-28T00:56:53.600Z,4.66
2023-01-28T00:59:20.495Z,4.62
2023-01-28T01:01:47.159Z,4.58
2023-01-28T01:04:13.816Z,4.58
2023-01-28T01:06:40.927Z,4.58
2023-01-28T01:09:11.187Z,4.57
2023-01-28T01:11:37.901Z,4.56
2023-01-28T01:14:07.006Z,4.54
2023-01-28T01:16:35.435Z,4.54
2023-01-28T01:19:03.566Z,4.54
2023-01-28T01:21:31.334Z,4.55
2023-01-28T01:23:57.994Z,4.54
2023-01-28T01:26:26.334Z,4.54
2023-01-28T01:28:52.953Z,4.53
2023-01-28T01:31:21.952Z,4.54
2023-01-28T01:33:50.306Z,4.53
2023-01-28T01:36:20.077Z,4.52
2023-01-28T01:38:46.665Z,4.52
2023-01-28T01:41:23.966Z,4.51
2023-01-28T01:43:56.628Z,4.48
2023-01-28T01:46:38.411Z,4.48
2023-01-28T01:49:19.068Z,4.47
2023-01-28T01:51:49.695Z,4.51
2023-01-28T01:54:18.241Z,4.50
2023-01-28T01:56:48.840Z,4.49
2023-01-28T01:59:22.366Z,4.46
2023-01-28T02:01:49.191Z,4.44
2023-01-28T02:04:32.523Z,4.42
2023-01-28T02:07:01.689Z,4.44
2023-01-28T02:09:36.110Z,4.45
2023-01-28T02:12:08.744Z,4.41
2023-01-28T02:14:50.093Z,4.41
2023-01-28T02:17:17.014Z,4.42
2023-01-28T02:19:51.654Z,4.42
2023-01-28T02:22:32.206Z,4.42
2023-01-28T02:25:17.734Z,4.42
2023-01-28T02:27:53.306Z,4.41
2023-01-28T02:30:25.548Z,4.42
2023-01-28T02:33:00.545Z,4.43
2023-01-28T02:35:52.548Z,4.41
2023-01-28T02:38:22.672Z,4.46
2023-01-28T02:41:02.350Z,4.47
2023-01-28T02:43:44.102Z,4.44
2023-01-28T02:46:53.932Z,4.43
2023-01-28T02:49:23.160Z,4.45
2023-01-28T02:51:58.443Z,4.46
2023-01-28T02:54:32.642Z,4.47
2023-01-28T02:57:39.818Z,4.43
2023-01-28T03:00:09.811Z,4.45
2023-01-28T03:02:51.004Z,4.45
2023-01-28T03:05:27.384Z,4.45
2023-01-28T03:07:54.171Z,4.45
2023-01-28T03:10:24.915Z,4.46
2023-01-28T03:13:16.176Z,4.46
2023-01-28T03:16:05.893Z,4.43
2023-01-28T03:19:02.349Z,4.40
2023-01-28T03:22:01.468Z,4.40
2023-01-28T03:24:50.995Z,4.41
2023-01-28T03:27:51.836Z,4.38
2023-01-28T03:30:49.166Z,4.37
2023-01-28T03:33:35.572Z,4.33
2023-01-28T03:36:21.303Z,4.30
2023-01-28T03:38:48.674Z,4.29
2023-01-28T03:41:22.793Z,4.29
2023-01-28T03:43:50.466Z,4.30
2023-01-28T03:46:18.509Z,4.28
2023-01-28T03:48:45.723Z,4.26
2023-01-28T03:51:12.553Z,4.26
2023-01-28T03:53:40.444Z,4.25
2023-01-28T03:56:07.507Z,4.27
2023-01-28T03:58:53.066Z,4.26
2023-01-28T04:01:20.875Z,4.25
2023-01-28T04:03:47.967Z,4.28
2023-01-28T04:06:15.317Z,4.26
2023-01-28T04:08:46.145Z,4.24
2023-01-28T04:11:20.137Z,4.24
2023-01-28T04:13:48.046Z,4.25
2023-01-28T04:16:17.497Z,4.23
2023-01-28T04:18:44.894Z,4.21
2023-01-28T04:21:11.682Z,4.21
2023-01-28T04:23:38.903Z,4.23
2023-01-28T04:26:05.536Z,4.25
2023-01-28T04:28:32.094Z,4.28
2023-01-28T04:30:58.778Z,4.25
2023-01-28T04:33:25.430Z,4.27
2023-01-28T04:35:52.058Z,4.30
2023-01-28T04:38:18.704Z,4.31
2023-01-28T04:40:45.303Z,4.31
2023-01-28T04:43:11.948Z,4.31
2023-01-28T04:45:38.518Z,4.29
2023-01-28T04:48:05.268Z,4.29
2023-01-28T04:50:31.873Z,4.30
2023-01-28T04:52:58.431Z,4.30
2023-01-28T04:55:25.229Z,4.30
2023-01-28T04:57:51.837Z,4.29
2023-01-28T05:00:19.013Z,4.27
2023-01-28T05:02:45.743Z,4.28
2023-01-28T05:05:12.346Z,4.28
2023-01-28T05:07:38.971Z,4.26
2023-01-28T05:10:06.135Z,4.25
2023-01-28T05:12:34.129Z,4.24
2023-01-28T05:15:01.410Z,4.24
2023-01-28T05:17:28.855Z,4.26
2023-01-28T05:19:55.473Z,4.25
2023-01-28T05:22:22.194Z,4.26
2023-01-28T05:24:48.815Z,4.26
2023-01-28T05:27:15.474Z,4.24
2023-01-28T05:29:42.041Z,4.23
2023-01-28T05:32:08.818Z,4.20
2023-01-28T05:34:35.439Z,4.20
2023-01-28T05:37:02.062Z,4.18
2023-01-28T05:39:28.756Z,4.18
2023-01-28T05:41:55.310Z,4.20
2023-01-28T05:44:21.869Z,4.17
2023-01-28T05:46:48.486Z,4.17
2023-01-28T05:49:15.121Z,4.17
2023-01-28T05:51:41.848Z,4.16
2023-01-28T05:54:09.423Z,4.16
2023-01-28T05:56:36.650Z,4.14
2023-01-28T05:59:04.331Z,4.25
2023-01-28T06:01:30.916Z,4.48
2023-01-28T06:03:57.628Z,4.84
2023-01-28T06:06:24.322Z,5.50
2023-01-28T06:08:50.877Z,6.01
2023-01-28T06:11:19.001Z,6.36
2023-01-28T06:13:46.543Z,6.51
2023-01-28T06:16:13.494Z,6.39
2023-01-28T06:18:41.424Z,6.00
2023-01-28T06:21:08.349Z,5.60
2023-01-28T06:23:34.969Z,5.31
2023-01-28T06:26:01.550Z,5.10
2023-01-28T06:28:28.193Z,4.93
2023-01-28T06:30:55.145Z,4.81
2023-01-28T06:33:22.590Z,4.74
2023-01-28T06:35:49.262Z,4.66
2023-01-28T06:38:15.992Z,4.57
2023-01-28T06:40:42.585Z,4.53
2023-01-28T06:43:09.171Z,4.47
2023-01-28T06:45:35.742Z,4.41
2023-01-28T06:48:03.946Z,4.38
2023-01-28T06:50:30.756Z,4.34
2023-01-28T06:52:57.311Z,4.30
2023-01-28T06:55:23.919Z,4.28
2023-01-28T06:57:50.489Z,4.23
2023-01-28T07:00:18.052Z,4.15
2023-01-28T07:02:45.055Z,4.11
2023-01-28T07:05:11.822Z,4.09
2023-01-28T07:07:41.492Z,4.11
2023-01-28T07:10:09.527Z,4.14
2023-01-28T07:12:36.140Z,4.12
2023-01-28T07:15:02.801Z,4.10
2023-01-28T07:17:29.529Z,4.08
2023-01-28T07:19:56.187Z,4.04
2023-01-28T07:22:22.813Z,4.02
2023-01-28T07:24:49.444Z,4.00
2023-01-28T07:27:16.083Z,3.97
2023-01-28T07:29:42.782Z,3.94
2023-01-28T07:32:09.569Z,3.93
2023-01-28T07:34:39.905Z,3.96
2023-01-28T07:37:06.834Z,3.97
2023-01-28T07:39:34.625Z,3.97
2023-01-28T07:42:02.001Z,3.95
2023-01-28T07:44:28.576Z,3.96
2023-01-28T07:46:55.276Z,4.01
2023-01-28T07:49:21.877Z,4.01
2023-01-28T07:51:50.562Z,3.99
2023-01-28T07:54:17.490Z,4.00
2023-01-28T07:56:44.021Z,3.96
2023-01-28T07:59:10.586Z,3.95
2023-01-28T08:01:37.221Z,3.99
2023-01-28T08:04:03.906Z,4.06
2023-01-28T08:06:30.770Z,4.13
2023-01-28T08:08:57.470Z,4.23
2023-01-28T08:11:24.248Z,4.31
2023-01-28T08:13:50.885Z,4.37
2023-01-28T08:16:17.509Z,4.42
2023-01-28T08:18:44.139Z,4.44
2023-01-28T08:21:10.733Z,4.46
2023-01-28T08:23:37.372Z,4.52
2023-01-28T08:26:04.134Z,4.58
2023-01-28T08:28:30.763Z,4.63
2023-01-28T08:31:00.394Z,4.67
2023-01-28T08:33:27.299Z,4.71
2023-01-28T08:35:53.948Z,4.75
2023-01-28T08:38:20.953Z,4.78
2023-01-28T08:40:50.518Z,4.79
2023-01-28T08:43:17.262Z,4.78
2023-01-28T08:45:43.822Z,4.78
2023-01-28T08:48:15.097Z,4.81
2023-01-28T08:50:41.780Z,4.87
2023-01-28T08:53:12.363Z,4.93
2023-01-28T08:55:39.326Z,4.99
2023-01-28T08:58:08.167Z,5.00
2023-01-28T09:00:35.496Z,5.05
2023-01-28T09:03:05.581Z,5.09
2023-01-28T09:05:34.133Z,5.12
2023-01-28T09:08:06.280Z,5.13
2023-01-28T09:10:33.046Z,5.15
2023-01-28T09:12:59.644Z,5.23
2023-01-28T09:15:26.274Z,5.38
2023-01-28T09:17:58.340Z,5.53
2023-01-28T09:20:25.362Z,5.71
2023-01-28T09:22:52.125Z,5.75
2023-01-28T09:25:18.769Z,5.73
2023-01-28T09:27:45.419Z,5.65
2023-01-28T09:30:14.011Z,5.63
2023-01-28T09:32:40.969Z,5.66
2023-01-28T09:35:08.024Z,5.63
2023-01-28T09:37:34.587Z,5.58
2023-01-28T09:40:01.742Z,5.58
2023-01-28T09:42:52.679Z,5.62
2023-01-28T09:45:33.030Z,5.62
2023-01-28T09:48:03.196Z,5.71
2023-01-28T09:50:35.591Z,5.73
2023-01-28T09:53:30.867Z,5.73
2023-01-28T09:56:13.097Z,5.62
2023-01-28T09:58:42.046Z,5.38
2023-01-28T10:01:40.957Z,5.11
2023-01-28T10:04:28.973Z,4.97
2023-01-28T10:06:55.484Z,4.89
2023-01-28T10:09:42.735Z,4.87
2023-01-28T10:12:33.729Z,4.90
2023-01-28T10:15:18.274Z,4.87
2023-01-28T10:17:47.545Z,4.82
2023-01-28T10:20:17.960Z,4.85
2023-01-28T10:22:49.984Z,4.93
2023-01-28T10:25:20.791Z,4.99
2023-01-28T10:27:48.944Z,5.08
2023-01-28T10:30:16.285Z,5.07
2023-01-28T10:32:53.726Z,5.00
2023-01-28T10:35:21.728Z,4.98
2023-01-28T10:37:49.039Z,5.03
2023-01-28T10:40:19.189Z,5.10
2023-01-28T10:42:46.039Z,5.13
2023-01-28T10:45:25.544Z,5.11
2023-01-28T10:48:02.281Z,5.13
2023-01-28T10:50:31.109Z,5.18
2023-01-28T10:53:05.928Z,5.20
2023-01-28T10:55:55.913Z,5.21
2023-01-28T10:58:25.691Z,5.18
2023-01-28T11:00:54.797Z,5.15
2023-01-28T11:03:27.508Z,5.10
2023-01-28T11:05:56.487Z,5.04
2023-01-28T11:08:25.400Z,5.02
2023-01-28T11:10:53.149Z,5.03
2023-01-28T11:13:30.205Z,5.01
2023-01-28T11:16:06.923Z,5.07
2023-01-28T11:18:40.955Z,5.14
2023-01-28T11:21:16.978Z,5.18
2023-01-28T11:24:20.315Z,5.10
2023-01-28T11:26:51.118Z,5.08
2023-01-28T11:29:40.083Z,5.00
2023-01-28T11:32:17.732Z,4.94
2023-01-28T11:34:50.675Z,4.91
2023-01-28T11:37:17.377Z,4.96
2023-01-28T11:39:44.292Z,5.02
2023-01-28T11:42:13.738Z,5.13
2023-01-28T11:44:40.640Z,5.23
2023-01-28T11:47:25.758Z,5.26
2023-01-28T11:50:22.195Z,5.29
2023-01-28T11:53:06.766Z,5.32
2023-01-28T11:55:58.465Z,5.27
2023-01-28T11:58:43.179Z,5.24
2023-01-28T12:01:22.213Z,5.20
2023-01-28T12:04:02.883Z,5.18
2023-01-28T12:06:53.644Z,5.20
2023-01-28T12:09:47.580Z,5.18
2023-01-28T12:12:16.880Z,5.19
2023-01-28T12:15:22.128Z,5.18
2023-01-28T12:18:16.649Z,5.18
2023-01-28T12:21:11.245Z,5.06
2023-01-28T12:23:56.653Z,5.02
2023-01-28T12:26:43.065Z,4.93
2023-01-28T12:29:31.203Z,4.92
2023-01-28T12:32:03.722Z,4.91
2023-01-28T12:35:11.644Z,4.93
2023-01-28T12:38:04.090Z,4.93
2023-01-28T12:40:50.283Z,4.84
2023-01-28T12:43:37.777Z,4.80
2023-01-28T12:46:13.029Z,4.77
2023-01-28T12:48:53.212Z,4.74
2023-01-28T12:51:48.690Z,4.70
2023-01-28T12:54:22.515Z,4.75
2023-01-28T12:56:54.842Z,4.81
2023-01-28T12:59:46.867Z,4.82
2023-01-28T13:02:23.884Z,4.83
2023-01-28T13:05:13.191Z,4.83
2023-01-28T13:07:49.276Z,4.86
2023-01-28T13:10:27.438Z,4.90
2023-01-28T13:12:55.483Z,4.98
2023-01-28T13:15:22.886Z,5.03
2023-01-28T13:17:56.452Z,5.02
2023-01-28T13:20:31.153Z,4.95
2023-01-28T13:23:03.542Z,4.91
2023-01-28T13:25:36.474Z,4.87
2023-01-28T13:28:06.132Z,4.86
2023-01-28T13:30:35.630Z,4.91
2023-01-28T13:33:05.707Z,4.94
2023-01-28T13:35:40.423Z,4.95
2023-01-28T13:38:10.681Z,4.93
2023-01-28T13:40:40.561Z,4.84
2023-01-28T13:43:27.346Z,4.79
2023-01-28T13:46:27.712Z,4.72
2023-01-28T13:48:57.648Z,4.70
2023-01-28T13:51:28.840Z,4.65
2023-01-28T13:54:07.525Z,4.66
2023-01-28T13:56:43.356Z,4.66
2023-01-28T13:59:19.099Z,4.67
2023-01-28T14:02:13.422Z,4.67
2023-01-28T14:04:51.902Z,4.64
2023-01-28T14:08:01.354Z,4.62
2023-01-28T14:10:32.098Z,4.63
2023-01-28T14:13:29.858Z,4.61
2023-01-28T14:16:22.397Z,4.59
2023-01-28T14:18:49.956Z,4.58
2023-01-28T14:21:19.724Z,4.54
2023-01-28T14:23:49.751Z,4.51
2023-01-28T14:26:32.863Z,4.48
2023-01-28T14:29:12.817Z,4.50
2023-01-28T14:31:40.253Z,4.53
2023-01-28T14:34:17.360Z,4.52
2023-01-28T14:36:45.681Z,4.55
2023-01-28T14:39:27.250Z,4.59
2023-01-28T14:41:57.797Z,4.64
2023-01-28T14:44:28.208Z,4.66
2023-01-28T14:47:06.865Z,4.72
2023-01-28T14:49:59.958Z,4.72
2023-01-28T14:52:47.459Z,4.69
2023-01-28T14:55:48.179Z,4.67
2023-01-28T14:58:21.026Z,4.67
2023-01-28T15:00:56.380Z,4.66
2023-01-28T15:03:25.261Z,4.68
2023-01-28T15:06:06.343Z,4.72
2023-01-28T15:08:33.108Z,4.69
2023-01-28T15:11:01.486Z,4.71
2023-01-28T15:13:32.003Z,4.70
2023-01-28T15:16:00.743Z,4.70
2023-01-28T15:18:41.513Z,4.73
2023-01-28T15:21:08.671Z,4.73
2023-01-28T15:23:37.984Z,4.73
2023-01-28T15:26:07.077Z,4.68
2023-01-28T15:28:37.615Z,4.59
2023-01-28T15:31:04.605Z,4.56
2023-01-28T15:33:31.301Z,4.53
2023-01-28T15:35:59.042Z,4.50
2023-01-28T15:38:28.528Z,4.46
2023-01-28T15:41:00.870Z,4.45
2023-01-28T15:43:30.947Z,4.46
2023-01-28T15:45:59.783Z,4.45
2023-01-28T15:48:29.887Z,4.43
2023-01-28T15:51:04.371Z,4.44
2023-01-28T15:53:45.545Z,4.45
2023-01-28T15:56:14.287Z,4.44
2023-01-28T15:58:42.049Z,4.48
2023-01-28T16:01:08.703Z,4.48
2023-01-28T16:03:39.522Z,4.48
2023-01-28T16:06:09.637Z,4.47
2023-01-28T16:08:42.256Z,4.46
2023-01-28T16:11:10.581Z,4.46
2023-01-28T16:13:43.916Z,4.44
2023-01-28T16:16:11.715Z,4.47
2023-01-28T16:18:40.081Z,4.48
2023-01-28T16:21:10.446Z,4.46
2023-01-28T16:23:39.445Z,4.43
2023-01-28T16:26:27.856Z,4.39
2023-01-28T16:28:54.476Z,4.42
2023-01-28T16:31:21.491Z,4.42
2023-01-28T16:33:48.291Z,4.42
2023-01-28T16:36:18.373Z,4.45
2023-01-28T16:38:45.819Z,4.48
2023-01-28T16:44:59.962Z,4.39
2023-01-28T16:47:26.646Z,4.34
2023-01-28T16:49:53.220Z,4.34
2023-01-28T16:52:19.918Z,4.31
2023-01-28T16:54:46.843Z,4.31
2023-01-28T16:57:19.295Z,4.31
2023-01-28T16:59:46.289Z,4.32
2023-01-28T17:02:15.257Z,4.24
2023-01-28T17:04:42.197Z,4.19
2023-01-28T17:07:09.852Z,4.18
2023-01-28T17:09:36.494Z,4.20
2023-01-28T17:12:04.282Z,4.23
2023-01-28T17:14:31.012Z,4.21
2023-01-28T17:16:57.650Z,4.19
2023-01-28T17:19:24.314Z,4.19
2023-01-28T17:21:51.052Z,4.18
2023-01-28T17:24:17.634Z,4.17
2023-01-28T17:26:44.242Z,4.12
2023-01-28T17:29:10.916Z,4.06
2023-01-28T17:31:37.571Z,4.02
2023-01-28T17:34:06.884Z,3.99
2023-01-28T17:36:33.572Z,4.00
2023-01-28T17:39:00.199Z,4.04
2023-01-28T17:41:26.835Z,4.04
2023-01-28T17:43:55.683Z,4.04
2023-01-28T17:46:24.535Z,4.05
2023-01-28T17:48:51.409Z,4.08
2023-01-28T17:51:19.387Z,4.09
2023-01-28T17:53:53.225Z,4.05
2023-01-28T17:56:22.787Z,4.05
2023-01-28T17:58:53.791Z,4.02
2023-01-28T18:01:21.500Z,3.99
2023-01-28T18:03:48.168Z,3.96
2023-01-28T18:06:14.811Z,3.94
2023-01-28T18:08:41.481Z,3.92
2023-01-28T18:11:13.183Z,3.89
2023-01-28T18:13:41.026Z,3.90
2023-01-28T18:16:09.267Z,3.92
2023-01-28T18:18:35.804Z,3.91
2023-01-28T18:21:05.172Z,3.89
2023-01-28T18:23:32.561Z,3.88
2023-01-28T18:26:02.127Z,3.84
2023-01-28T18:28:29.077Z,3.82
2023-01-28T18:30:55.820Z,3.78
2023-01-28T18:33:23.765Z,3.80
2023-01-28T18:35:50.319Z,3.80
2023-01-28T18:38:18.630Z,3.80
2023-01-28T18:40:46.245Z,3.80
2023-01-28T18:43:14.332Z,3.78
2023-01-28T18:45:44.522Z,3.77
2023-01-28T18:48:11.496Z,3.78
2023-01-28T18:50:38.105Z,3.81
2023-01-28T18:53:04.655Z,3.82
2023-01-28T18:55:31.257Z,3.80
2023-01-28T18:57:57.991Z,3.81
2023-01-28T19:00:25.713Z,3.82
2023-01-28T19:02:52.342Z,3.80
2023-01-28T19:05:19.067Z,3.81
2023-01-28T19:07:45.647Z,3.81
2023-01-28T19:10:12.335Z,3.78
2023-01-28T19:12:38.920Z,3.70
2023-01-28T19:15:06.062Z,3.61
2023-01-28T19:17:35.184Z,3.58
2023-01-28T19:20:02.089Z,3.56
2023-01-28T19:22:28.766Z,3.53
2023-01-28T19:24:55.373Z,3.49
2023-01-28T19:27:21.940Z,3.47
2023-01-28T19:29:49.218Z,3.42
2023-01-28T19:32:15.985Z,3.40
2023-01-28T19:34:42.560Z,3.39
2023-01-28T19:37:09.249Z,3.33
2023-01-28T19:39:35.850Z,3.31
2023-01-28T19:42:03.155Z,3.29
2023-01-28T19:44:29.988Z,3.28
2023-01-28T19:46:57.038Z,3.26
2023-01-28T19:49:23.662Z,3.26
2023-01-28T19:51:50.372Z,3.27
2023-01-28T19:54:17.004Z,3.25
2023-01-28T19:56:43.584Z,3.24
2023-01-28T19:59:10.144Z,3.24
2023-01-28T20:01:37.088Z,3.21
2023-01-28T20:04:04.810Z,3.20
2023-01-28T20:06:32.726Z,3.18
2023-01-28T20:09:10.468Z,3.17
2023-01-28T20:11:37.067Z,3.17
2023-01-28T20:14:03.682Z,3.16
2023-01-28T20:16:32.674Z,3.15
2023-01-28T20:19:02.023Z,3.11
2023-01-28T20:21:29.942Z,3.11
2023-01-28T20:23:58.025Z,3.09
2023-01-28T20:26:26.981Z,3.09
2023-01-28T20:28:53.572Z,3.10
2023-01-28T20:31:20.888Z,3.11
2023-01-28T20:33:47.660Z,3.09
2023-01-28T20:36:15.175Z,3.10
2023-01-28T20:38:44.663Z,3.07
2023-01-28T20:41:17.324Z,3.02
2023-01-28T20:43:45.547Z,2.99
2023-01-28T20:46:19.651Z,2.95
2023-01-28T20:48:47.089Z,2.97
2023-01-28T20:51:19.559Z,2.98
2023-01-28T20:53:47.082Z,3.00
2023-01-28T20:56:16.865Z,2.98
2023-01-28T20:58:44.800Z,2.97
2023-01-28T21:01:23.865Z,2.93
2023-01-28T21:03:50.700Z,2.94
2023-01-28T21:06:17.894Z,2.95
2023-01-28T21:08:45.071Z,2.95
2023-01-28T21:11:12.063Z,2.93
2023-01-28T21:13:38.978Z,2.95
2023-01-28T21:16:05.998Z,2.96
2023-01-28T21:18:32.913Z,2.99
2023-01-28T21:21:05.261Z,2.99
2023-01-28T21:23:31.969Z,3.01
2023-01-28T21:26:05.309Z,3.01
2023-01-28T21:28:32.134Z,2.99
2023-01-28T21:31:06.362Z,2.93
2023-01-28T21:33:33.012Z,2.94
2023-01-28T21:35:59.695Z,2.99
2023-01-28T21:38:26.305Z,3.03
2023-01-28T21:40:52.864Z,3.04
2023-01-28T21:43:19.431Z,3.04
2023-01-28T21:45:47.856Z,3.04
2023-01-28T21:48:14.438Z,3.02
2023-01-28T21:50:59.503Z,3.01
2023-01-28T21:53:26.059Z,2.94
2023-01-28T21:55:52.614Z,2.94
2023-01-28T21:58:37.627Z,2.95
2023-01-28T22:01:10.545Z,2.93
2023-01-28T22:03:37.109Z,2.96
2023-01-28T22:06:03.838Z,2.96
2023-01-28T22:08:30.435Z,2.91
2023-01-28T22:10:57.356Z,2.88
2023-01-28T22:13:23.897Z,2.85
2023-01-28T22:15:50.597Z,2.84
2023-01-28T22:18:17.166Z,2.87
2023-01-28T22:20:44.491Z,2.87
2023-01-28T22:23:11.076Z,2.86
2023-01-28T22:25:37.685Z,2.88
2023-01-28T22:28:04.491Z,2.88
2023-01-28T22:30:31.157Z,2.86
2023-01-28T22:32:57.699Z,2.88
2023-01-28T22:35:24.345Z,2.87
2023-01-28T22:37:51.041Z,2.88
2023-01-28T22:40:17.970Z,2.89
2023-01-28T22:42:44.613Z,2.89
2023-01-28T22:45:11.506Z,2.88
2023-01-28T22:47:38.209Z,2.84
2023-01-28T22:50:05.271Z,2.82
2023-01-28T22:52:31.980Z,2.81
2023-01-28T22:54:58.555Z,2.82
2023-01-28T22:57:25.133Z,2.81
2023-01-28T23:00:00.003Z,2.79
2023-01-28T23:02:27.341Z,2.77
2023-01-28T23:04:53.903Z,2.78
2023-01-28T23:07:20.577Z,2.78
2023-01-28T23:09:47.176Z,2.76
2023-01-28T23:12:13.734Z,2.76
2023-01-28T23:14:58.892Z,2.77
2023-01-28T23:17:44.144Z,2.77
2023-01-28T23:20:29.743Z,2.75
2023-01-28T23:23:28.897Z,2.70
2023-01-28T23:25:55.512Z,2.66
2023-01-28T23:28:22.141Z,2.64
2023-01-28T23:30:48.741Z,2.59
2023-01-28T23:33:15.316Z,2.59
2023-01-28T23:35:42.042Z,2.56
2023-01-28T23:38:08.609Z,2.53
2023-01-28T23:40:35.242Z,2.52
2023-01-28T23:43:01.845Z,2.51
2023-01-28T23:45:28.415Z,2.54
2023-01-28T23:47:55.132Z,2.51
2023-01-28T23:50:22.807Z,2.49
2023-01-28T23:52:49.392Z,2.50
2023-01-28T23:55:18.914Z,2.52
2023-01-28T23:57:45.503Z,2.50
